Time;durP1;ratioP1;P1;durP2;ratioP2;P2;SDS_P1;SDS_P2;PMS_P1;PMS_P2;Temp;Humidity;BMP_temperature;BMP_pressure;BME280_temperature;BME280_humidity;BME280_pressure;Samples;Min_cycle;Max_cycle;Signal;HPM_P1;HPM_P2
2022/11/11 00:02:41;;;;;;;7.60;4.27;;;;;;;-144.22;100.00;60274.75;6263494;28;20228;-42
2022/11/11 00:06:03;;;;;;;5.07;4.27;;;;;;;-144.22;100.00;60274.75;6266953;28;20235;-42
2022/11/11 00:09:24;;;;;;;5.27;4.50;;;;;;;-144.22;100.00;60274.75;6264691;28;20237;-42
2022/11/11 00:12:45;;;;;;;7.80;4.00;;;;;;;-144.22;100.00;60274.75;6266942;28;20234;-42
2022/11/11 00:16:11;;;;;;;6.07;4.50;;;;;;;-144.22;100.00;60274.75;6262496;28;20264;-42
2022/11/11 00:27:05;;;;;;;3.90;3.50;;;;;;;-144.22;100.00;60274.75;6267628;28;20633;-42
2022/11/11 00:30:26;;;;;;;5.10;4.13;;;;;;;-144.22;100.00;60274.75;6264861;28;20304;-42
2022/11/11 00:33:47;;;;;;;10.30;4.57;;;;;;;-144.22;100.00;60274.75;6264037;28;20272;-42
2022/11/11 00:37:07;;;;;;;6.23;4.50;;;;;;;-144.22;100.00;60274.75;6267097;28;20238;-42
2022/11/11 00:40:28;;;;;;;6.83;4.57;;;;;;;-144.22;100.00;60274.75;6264337;28;20231;-42
2022/11/11 00:43:49;;;;;;;7.50;4.27;;;;;;;-144.22;100.00;60274.75;6266012;28;20231;-42
2022/11/11 00:50:58;;;;;;;7.40;4.80;;;;;;;-144.22;100.00;60274.75;6218817;28;1362885;-42
2022/11/11 00:54:18;;;;;;;8.40;4.87;;;;;;;-144.22;100.00;60274.75;6269901;28;20216;-42
2022/11/11 00:57:40;;;;;;;9.17;5.40;;;;;;;-144.22;100.00;60274.75;6266660;28;20236;-42
2022/11/11 01:01:00;;;;;;;8.20;5.70;;;;;;;-144.22;100.00;60274.75;6264369;28;20245;-42
2022/11/11 01:04:22;;;;;;;12.00;5.93;;;;;;;-144.22;100.00;60274.75;6265678;28;20234;-42
2022/11/11 01:07:42;;;;;;;5.90;5.00;;;;;;;-144.22;100.00;60274.75;6264075;28;20231;-41
2022/11/11 01:11:03;;;;;;;6.93;5.00;;;;;;;-144.22;100.00;60274.75;6265789;28;20227;-42
2022/11/11 01:14:24;;;;;;;10.73;6.40;;;;;;;-144.22;100.00;60274.75;6261755;28;20222;-42
2022/11/11 01:17:44;;;;;;;9.67;6.70;;;;;;;-144.22;100.00;60274.75;6263123;28;20238;-42
2022/11/11 01:21:10;;;;;;;7.60;6.13;;;;;;;-144.22;100.00;60274.75;6264449;28;20240;-42
2022/11/11 01:24:30;;;;;;;10.20;6.67;;;;;;;-144.22;100.00;60274.75;6270569;28;20228;-42
2022/11/11 01:27:51;;;;;;;9.97;6.07;;;;;;;-144.22;100.00;60274.75;6263995;28;20231;-42
2022/11/11 01:31:13;;;;;;;8.27;5.73;;;;;;;-144.22;100.00;60274.75;6265485;28;20233;-42
2022/11/11 01:34:34;;;;;;;7.23;5.53;;;;;;;-144.22;100.00;60274.75;6265651;28;20238;-42
2022/11/11 01:37:57;;;;;;;6.73;5.07;;;;;;;-144.22;100.00;60274.75;6264124;28;20723;-42
2022/11/11 01:41:33;;;;;;;7.17;4.77;;;;;;;-144.22;100.00;60274.75;6250075;28;20635;-41
2022/11/11 01:44:54;;;;;;;7.37;5.07;;;;;;;-144.22;100.00;60274.75;6265284;28;20226;-43
2022/11/11 01:52:32;;;;;;;10.53;4.97;;;;;;;-144.22;100.00;60274.75;6264484;28;20773;-42
2022/11/11 01:55:53;;;;;;;6.77;5.63;;;;;;;-144.22;100.00;60274.75;6263868;28;20281;-42
2022/11/11 01:59:16;;;;;;;11.80;5.30;;;;;;;-144.22;100.00;60274.75;6262325;28;20699;-42
2022/11/11 02:02:43;;;;;;;7.67;5.20;;;;;;;-144.22;100.00;60274.75;6262531;28;20686;-42
2022/11/11 02:06:04;;;;;;;7.40;5.20;;;;;;;-144.22;100.00;60274.75;6264590;28;20727;-42
2022/11/11 02:09:25;;;;;;;10.47;5.63;;;;;;;-144.22;100.00;60274.75;6263326;28;20315;-42
2022/11/11 02:16:25;;;;;;;9.67;6.37;;;;;;;-144.22;100.00;60274.75;6263418;28;20231;-42
2022/11/11 02:19:54;;;;;;;8.83;5.53;;;;;;;-144.22;100.00;60274.75;6264895;28;20728;-42
2022/11/11 02:23:27;;;;;;;8.43;4.60;;;;;;;-144.22;100.00;60274.75;6266259;28;20229;-42
2022/11/11 02:26:49;;;;;;;5.53;4.10;;;;;;;-144.22;100.00;60274.75;6263407;28;20271;-42
2022/11/11 02:30:19;;;;;;;4.97;3.77;;;;;;;-144.22;100.00;60274.75;6266790;28;20226;-41
2022/11/11 02:33:40;;;;;;;5.73;3.50;;;;;;;-144.22;100.00;60274.75;6252870;28;20238;-42
2022/11/11 02:37:03;;;;;;;4.43;3.20;;;;;;;-144.22;100.00;60274.75;6267310;28;20319;-42
2022/11/11 02:40:33;;;;;;;6.30;3.63;;;;;;;-144.22;100.00;60274.75;6267316;28;20246;-42
2022/11/11 02:43:53;;;;;;;8.53;3.77;;;;;;;-144.22;100.00;60274.75;6271220;28;20231;-42
2022/11/11 02:47:14;;;;;;;6.23;3.00;;;;;;;-144.22;100.00;60274.75;6271217;28;20230;-41
2022/11/11 02:50:35;;;;;;;5.97;3.03;;;;;;;-144.22;100.00;60274.75;6269922;28;20232;-42
2022/11/11 02:53:57;;;;;;;5.77;3.20;;;;;;;-144.22;100.00;60274.75;6271533;28;20236;-42
2022/11/11 02:57:19;;;;;;;7.40;2.50;;;;;;;-144.22;100.00;60274.75;6268040;28;20228;-42
2022/11/11 03:00:41;;;;;;;3.47;2.60;;;;;;;-144.22;100.00;60274.75;6267561;28;20241;-42
2022/11/11 03:04:02;;;;;;;4.87;2.60;;;;;;;-144.22;100.00;60274.75;6264732;28;20605;-41
2022/11/11 03:07:24;;;;;;;4.33;2.73;;;;;;;-144.22;100.00;60274.75;6265709;28;20224;-41
2022/11/11 03:10:44;;;;;;;5.60;2.90;;;;;;;-144.22;100.00;60274.75;6266884;28;20228;-42
2022/11/11 03:14:07;;;;;;;3.90;2.67;;;;;;;-144.22;100.00;60274.75;6266428;28;20234;-41
2022/11/11 03:17:40;;;;;;;4.20;2.80;;;;;;;-144.22;100.00;60274.75;6267191;28;20312;-42
2022/11/11 03:21:04;;;;;;;4.70;2.63;;;;;;;-144.22;100.00;60274.75;6256220;28;20329;-42
2022/11/11 03:28:24;;;;;;;4.93;2.87;;;;;;;-144.22;100.00;60274.75;6266970;28;20324;-42
2022/11/11 03:31:45;;;;;;;3.70;3.10;;;;;;;-144.22;100.00;60274.75;6265724;28;20626;-41
2022/11/11 03:35:06;;;;;;;6.87;3.37;;;;;;;-144.22;100.00;60274.75;6266259;28;20464;-42
2022/11/11 03:38:26;;;;;;;5.17;3.50;;;;;;;-144.22;100.00;60274.75;6266056;28;20234;-42
2022/11/11 03:41:47;;;;;;;3.80;3.00;;;;;;;-144.22;100.00;60274.75;6265270;28;20242;-42
2022/11/11 03:45:08;;;;;;;4.57;3.20;;;;;;;-144.22;100.00;60274.75;6265188;28;20625;-42
2022/11/11 03:48:32;;;;;;;4.60;3.87;;;;;;;-144.22;100.00;60274.75;6267366;28;20288;-43
2022/11/11 03:51:52;;;;;;;10.23;5.23;;;;;;;-144.22;100.00;60274.75;6265687;28;20316;-41
2022/11/11 03:55:13;;;;;;;9.10;3.93;;;;;;;-144.22;100.00;60274.75;6269693;28;20226;-42
2022/11/11 03:58:34;;;;;;;4.80;3.00;;;;;;;-144.22;100.00;60274.75;6266325;28;20242;-43
2022/11/11 04:16:33;;;;;;;3.23;2.10;;;;;;;-144.22;100.00;60274.75;6265905;28;20333;-42
2022/11/11 04:23:33;;;;;;;4.17;3.10;;;;;;;-144.22;100.00;60274.75;6269498;28;20223;-42
2022/11/11 04:26:56;;;;;;;5.93;3.17;;;;;;;-144.22;100.00;60274.75;6265043;28;20243;-41
2022/11/11 04:30:17;;;;;;;3.87;3.47;;;;;;;-144.22;100.00;60274.75;6264818;28;20218;-41
2022/11/11 04:33:37;;;;;;;4.83;3.67;;;;;;;-144.22;100.00;60274.75;6265471;28;20232;-42
2022/11/11 04:36:58;;;;;;;5.83;3.73;;;;;;;-144.22;100.00;60274.75;6265143;28;20244;-42
2022/11/11 04:47:38;;;;;;;5.87;4.07;;;;;;;-144.22;100.00;60274.75;6264550;28;20229;-41
2022/11/11 04:50:58;;;;;;;6.23;4.30;;;;;;;-144.22;100.00;60274.75;6265423;28;20776;-42
2022/11/11 04:54:19;;;;;;;6.63;4.17;;;;;;;-144.22;100.00;60274.75;6263325;28;20264;-42
2022/11/11 04:57:42;;;;;;;7.43;4.70;;;;;;;-144.22;100.00;60274.75;6264793;28;20754;-42
2022/11/11 05:01:02;;;;;;;7.50;4.30;;;;;;;-144.22;100.00;60274.75;6250527;28;20249;-42
2022/11/11 05:04:23;;;;;;;5.87;4.67;;;;;;;-144.22;100.00;60274.75;6255554;28;20239;-42
2022/11/11 05:11:29;;;;;;;7.33;4.50;;;;;;;-144.22;100.00;60274.75;6262761;28;20241;-42
2022/11/11 05:22:22;;;;;;;8.33;5.10;;;;;;;-144.22;100.00;60274.75;6267011;28;20231;-41
2022/11/11 05:25:43;;;;;;;7.80;5.40;;;;;;;-144.22;100.00;60274.75;6264467;28;20365;-41
2022/11/11 05:29:03;;;;;;;8.53;4.93;;;;;;;-144.22;100.00;60274.75;6265911;28;20245;-41
2022/11/11 05:32:24;;;;;;;6.00;4.50;;;;;;;-144.22;100.00;60274.75;6266085;28;20229;-42
2022/11/11 05:35:45;;;;;;;7.93;5.10;;;;;;;-144.22;100.00;60274.75;6264859;28;20272;-42
2022/11/11 05:39:06;;;;;;;7.67;5.10;;;;;;;-144.22;100.00;60274.75;6263329;28;20223;-41
2022/11/11 05:42:27;;;;;;;10.57;5.40;;;;;;;-144.22;100.00;60274.75;6263385;28;20229;-42
2022/11/11 05:45:47;;;;;;;6.90;4.90;;;;;;;-144.22;100.00;60274.75;6264246;28;20237;-42
2022/11/11 05:49:14;;;;;;;6.97;4.57;;;;;;;-144.22;100.00;60274.75;6264667;28;20232;-42
2022/11/11 05:52:35;;;;;;;6.97;4.87;;;;;;;-144.22;100.00;60274.75;6266623;28;20232;-42
2022/11/11 05:55:55;;;;;;;9.70;5.40;;;;;;;-144.22;100.00;60274.75;6263266;28;20260;-42
2022/11/11 05:59:16;;;;;;;8.60;4.93;;;;;;;-144.22;100.00;60274.75;6266349;28;20695;-42
2022/11/11 06:02:37;;;;;;;8.70;5.57;;;;;;;-144.22;100.00;60274.75;6263801;28;20228;-42
2022/11/11 06:05:58;;;;;;;7.57;4.90;;;;;;;-144.22;100.00;60274.75;6270354;28;20315;-41
2022/11/11 06:09:19;;;;;;;8.27;5.60;;;;;;;-144.22;100.00;60274.75;6269614;28;20316;-42
2022/11/11 06:13:01;;;;;;;6.77;4.30;;;;;;;-144.22;100.00;60274.75;6267879;28;20342;-41
2022/11/11 06:16:22;;;;;;;9.13;5.80;;;;;;;-144.22;100.00;60274.75;6271177;28;20232;-42
2022/11/11 06:19:43;;;;;;;6.43;4.80;;;;;;;-144.22;100.00;60274.75;6270643;28;20320;-41
2022/11/11 06:23:04;;;;;;;7.40;5.20;;;;;;;-144.22;100.00;60274.75;6262265;28;20233;-41
2022/11/11 06:26:24;;;;;;;7.17;4.30;;;;;;;-144.22;100.00;60274.75;6267175;28;20605;-42
2022/11/11 06:29:45;;;;;;;8.03;4.50;;;;;;;-144.22;100.00;60274.75;6267626;28;20256;-42
2022/11/11 06:33:09;;;;;;;8.13;5.40;;;;;;;-144.22;100.00;60274.75;6267601;28;20709;-42
2022/11/11 06:36:30;;;;;;;6.53;5.33;;;;;;;-144.22;100.00;60274.75;6266519;28;20610;-41
2022/11/11 06:39:50;;;;;;;5.87;4.73;;;;;;;-144.22;100.00;60274.75;6267429;28;20239;-42
2022/11/11 06:43:11;;;;;;;7.83;5.23;;;;;;;-144.22;100.00;60274.75;6267802;28;20241;-41
2022/11/11 06:46:32;;;;;;;7.93;4.80;;;;;;;-144.22;100.00;60274.75;6271345;28;20251;-41
2022/11/11 06:49:52;;;;;;;8.63;5.97;;;;;;;-144.22;100.00;60274.75;6267804;28;20244;-42
2022/11/11 06:53:15;;;;;;;11.57;5.33;;;;;;;-144.22;100.00;60274.75;6269885;28;20284;-41
2022/11/11 06:56:36;;;;;;;7.10;4.80;;;;;;;-144.22;100.00;60274.75;6264994;28;20228;-42
2022/11/11 06:59:57;;;;;;;6.00;4.17;;;;;;;-144.22;100.00;60274.75;6266701;28;20704;-42
2022/11/11 07:03:21;;;;;;;7.00;4.80;;;;;;;-144.22;100.00;60274.75;6271153;28;20242;-42
2022/11/11 07:06:45;;;;;;;9.63;5.27;;;;;;;-144.22;100.00;60274.75;6267447;28;20228;-42
2022/11/11 07:10:06;;;;;;;5.73;4.57;;;;;;;-144.22;100.00;60274.75;6270286;28;20592;-42
2022/11/11 07:13:26;;;;;;;7.00;4.23;;;;;;;-144.22;100.00;60274.75;6268124;28;20249;-41
2022/11/11 07:16:47;;;;;;;6.50;4.00;;;;;;;-144.22;100.00;60274.75;6273799;28;20630;-42
2022/11/11 07:20:08;;;;;;;6.70;4.13;;;;;;;-144.22;100.00;60274.75;6267174;28;20716;-41
2022/11/11 07:23:29;;;;;;;5.07;3.73;;;;;;;-144.22;100.00;60274.75;6271234;28;20706;-41
2022/11/11 07:26:50;;;;;;;8.90;4.33;;;;;;;-144.22;100.00;60274.75;6265417;28;20267;-41
2022/11/11 07:30:11;;;;;;;6.87;5.03;;;;;;;-144.22;100.00;60274.75;6266165;28;20235;-41
2022/11/11 07:33:32;;;;;;;12.10;6.97;;;;;;;-144.22;100.00;60274.75;6264017;28;20678;-41
2022/11/11 07:36:52;;;;;;;7.10;4.77;;;;;;;-144.22;100.00;60274.75;6265642;28;20237;-41
2022/11/11 07:40:15;;;;;;;8.17;5.90;;;;;;;-144.22;100.00;60274.75;6265105;28;20238;-41
2022/11/11 07:43:35;;;;;;;10.83;6.50;;;;;;;-144.22;100.00;60274.75;6267232;28;20242;-41
2022/11/11 07:46:56;;;;;;;9.00;6.17;;;;;;;-144.22;100.00;60274.75;6269234;28;20318;-41
2022/11/11 07:50:17;;;;;;;9.73;6.53;;;;;;;-144.22;100.00;60274.75;6269194;28;20238;-41
2022/11/11 07:53:37;;;;;;;8.77;6.10;;;;;;;-144.22;100.00;60274.75;6266079;28;20227;-41
2022/11/11 07:56:58;;;;;;;11.23;7.10;;;;;;;-144.22;100.00;60274.75;6250360;28;20314;-41
2022/11/11 08:00:18;;;;;;;9.70;6.57;;;;;;;-144.22;100.00;60274.75;6264944;28;20691;-41
2022/11/11 08:03:48;;;;;;;12.43;6.77;;;;;;;-144.22;100.00;60274.75;6266142;28;20437;-41
2022/11/11 08:07:09;;;;;;;10.17;6.87;;;;;;;-144.22;100.00;60274.75;6264717;28;20697;-41
2022/11/11 08:10:31;;;;;;;10.37;6.73;;;;;;;-144.22;100.00;60274.75;6265534;28;20228;-41
2022/11/11 08:13:51;;;;;;;6.70;5.53;;;;;;;-144.22;100.00;60274.75;6265329;28;20679;-41
2022/11/11 08:17:12;;;;;;;7.07;5.80;;;;;;;-144.22;100.00;60274.75;6264738;28;20340;-41
2022/11/11 08:20:33;;;;;;;8.20;5.50;;;;;;;-144.22;100.00;60274.75;6266889;28;20736;-41
2022/11/11 08:23:54;;;;;;;8.77;6.97;;;;;;;-144.22;100.00;60274.75;6269835;28;20235;-41
2022/11/11 08:27:35;;;;;;;7.77;5.27;;;;;;;-144.22;100.00;60274.75;6265323;28;20692;-42
2022/11/11 08:31:01;;;;;;;10.53;6.83;;;;;;;-144.22;100.00;60274.75;6265999;28;20828;-42
2022/11/11 08:34:24;;;;;;;9.57;6.33;;;;;;;-144.22;100.00;60274.75;6265501;28;20237;-41
2022/11/11 08:37:44;;;;;;;7.00;5.40;;;;;;;-144.22;100.00;60274.75;6266519;28;20237;-41
2022/11/11 08:41:06;;;;;;;8.33;6.83;;;;;;;-144.22;100.00;60274.75;6269453;28;20226;-41
2022/11/11 08:44:27;;;;;;;6.63;5.90;;;;;;;-144.22;100.00;60274.75;6266189;28;20314;-41
2022/11/11 08:47:47;;;;;;;7.90;5.67;;;;;;;-144.22;100.00;60274.75;6264700;28;20288;-41
2022/11/11 08:51:08;;;;;;;6.13;5.53;;;;;;;-144.22;100.00;60274.75;6265087;28;20328;-41
2022/11/11 08:54:29;;;;;;;8.27;5.43;;;;;;;-144.22;100.00;60274.75;6267751;28;20311;-42
2022/11/11 08:57:58;;;;;;;6.60;5.93;;;;;;;-144.22;100.00;60274.75;6261649;28;20234;-41
2022/11/11 09:01:19;;;;;;;6.87;5.47;;;;;;;-144.22;100.00;60274.75;6267355;28;20229;-41
2022/11/11 09:04:40;;;;;;;5.33;4.83;;;;;;;-144.22;100.00;60274.75;6266678;28;20335;-41
2022/11/11 09:08:07;;;;;;;6.80;6.20;;;;;;;-144.22;100.00;60274.75;6263870;28;20230;-44
2022/11/11 09:11:34;;;;;;;6.63;5.37;;;;;;;-144.22;100.00;60274.75;6264186;28;20310;-41
2022/11/11 09:14:56;;;;;;;9.43;6.83;;;;;;;-144.22;100.00;60274.75;6265698;28;20713;-42
2022/11/11 09:18:16;;;;;;;9.07;6.07;;;;;;;-144.22;100.00;60274.75;6264265;28;20318;-43
2022/11/11 09:21:37;;;;;;;6.00;5.07;;;;;;;-144.22;100.00;60274.75;6266150;28;20241;-41
2022/11/11 09:24:57;;;;;;;6.63;4.40;;;;;;;-144.22;100.00;60274.75;6266997;28;20227;-42
2022/11/11 09:28:18;;;;;;;5.27;3.97;;;;;;;-144.22;100.00;60274.75;6261244;28;20234;-42
2022/11/11 09:31:39;;;;;;;5.07;4.53;;;;;;;-144.22;100.00;60274.75;6264053;28;20598;-42
2022/11/11 09:35:05;;;;;;;4.00;3.33;;;;;;;-144.22;100.00;60274.75;6263924;28;20224;-43
2022/11/11 09:38:25;;;;;;;5.07;3.70;;;;;;;-144.22;100.00;60274.75;6264450;28;20267;-42
2022/11/11 09:42:25;;;;;;;4.40;3.13;;;;;;;-144.22;100.00;60274.75;6268734;28;20286;-42
2022/11/11 09:46:04;;;;;;;3.53;3.10;;;;;;;-144.22;100.00;60274.75;6267212;28;20226;-42
2022/11/11 09:49:31;;;;;;;3.87;2.67;;;;;;;-144.22;100.00;60274.75;6268116;28;20237;-44
2022/11/11 09:52:56;;;;;;;3.67;2.47;;;;;;;23.82;28.26;97836.09;6276357;28;20724;-42
2022/11/11 09:56:19;;;;;;;2.43;2.07;;;;;;;11.19;96.01;99417.34;6270623;28;20231;-42
2022/11/11 09:59:55;;;;;;;3.37;1.67;;;;;;;11.43;94.24;99414.22;6268540;28;20238;-42
2022/11/11 10:03:17;;;;;;;4.30;1.57;;;;;;;11.76;91.31;99422.06;6272128;28;20288;-42
2022/11/11 10:06:37;;;;;;;3.57;1.80;;;;;;;12.09;88.55;99419.25;6269277;28;20226;-42
2022/11/11 10:10:07;;;;;;;2.60;1.30;;;;;;;12.19;87.60;99427.50;6259040;28;20243;-42
2022/11/11 10:13:30;;;;;;;2.27;1.20;;;;;;;12.23;88.07;99420.25;6270662;28;20283;-43
2022/11/11 10:17:01;;;;;;;1.53;1.20;;;;;;;12.22;87.94;99418.53;6267548;28;20231;-42
2022/11/11 10:20:30;;;;;;;2.73;1.10;;;;;;;12.16;88.61;99420.63;6253787;28;20596;-43
2022/11/11 10:23:57;;;;;;;1.30;0.90;;;;;;;12.12;86.68;99429.66;6270435;28;20234;-42
2022/11/11 10:27:22;;;;;;;1.73;1.10;;;;;;;12.16;87.18;99422.41;6267732;28;20234;-42
2022/11/11 10:30:44;;;;;;;2.33;1.30;;;;;;;12.18;86.57;99426.66;6268506;28;20258;-43
2022/11/11 10:34:10;;;;;;;5.03;2.23;;;;;;;12.19;82.69;99428.34;6268600;28;20355;-43
2022/11/11 10:37:41;;;;;;;4.50;2.37;;;;;;;12.31;81.48;99423.28;6267004;28;20243;-42
2022/11/11 10:41:15;;;;;;;4.37;2.50;;;;;;;12.38;81.91;99427.25;6268663;28;20709;-42
2022/11/11 10:44:37;;;;;;;4.90;2.90;;;;;;;12.40;80.29;99433.31;6267937;28;20722;-42
2022/11/11 10:48:03;;;;;;;5.13;2.80;;;;;;;12.42;79.56;99420.84;6265406;28;20231;-42
2022/11/11 10:51:29;;;;;;;4.13;2.97;;;;;;;12.32;79.52;99425.00;6267983;28;20471;-42
2022/11/11 10:55:01;;;;;;;7.10;4.30;;;;;;;12.14;80.12;99411.91;6260124;28;20262;-42
2022/11/11 10:58:31;;;;;;;5.57;4.70;;;;;;;11.98;80.45;99408.44;6268764;28;20350;-42
2022/11/11 11:02:00;;;;;;;5.67;4.43;;;;;;;11.82;81.43;99413.78;6269742;28;20227;-42
2022/11/11 11:05:52;;;;;;;6.83;5.10;;;;;;;11.80;81.53;99409.50;6268455;28;20230;-42
2022/11/11 11:09:29;;;;;;;7.93;5.33;;;;;;;12.00;81.17;99411.84;6266842;28;20347;-42
2022/11/11 11:13:15;;;;;;;9.80;6.17;;;;;;;12.18;78.62;99401.97;6253957;28;20227;-42
2022/11/11 11:16:46;;;;;;;7.87;5.33;;;;;;;12.45;78.25;99400.34;6266320;28;20596;-42
2022/11/11 11:20:18;;;;;;;7.90;5.13;;;;;;;12.82;76.70;99395.44;6270290;28;20326;-43
2022/11/11 11:23:46;;;;;;;7.23;5.07;;;;;;;13.08;75.72;99388.50;6268639;28;20270;-42
2022/11/11 11:27:07;;;;;;;8.50;4.40;;;;;;;13.05;74.88;99381.59;6265922;28;20263;-42
2022/11/11 11:30:28;;;;;;;7.87;4.17;;;;;;;12.94;74.81;99381.44;6264805;28;20215;-42
2022/11/11 11:33:55;;;;;;;8.70;3.87;;;;;;;12.78;74.63;99378.84;6265433;28;20235;-43
2022/11/11 11:37:18;;;;;;;4.80;2.83;;;;;;;12.72;76.11;99386.34;6255384;28;20730;-43
2022/11/11 11:40:55;;;;;;;5.53;3.00;;;;;;;12.71;76.96;99372.25;6265122;28;20226;-42
2022/11/11 11:44:35;;;;;;;7.17;3.47;;;;;;;12.84;75.24;99365.25;6266868;28;20227;-42
2022/11/11 11:48:21;;;;;;;5.50;3.13;;;;;;;13.10;73.99;99363.59;6268735;28;20322;-42
2022/11/11 11:52:31;;;;;;;4.47;3.20;;;;;;;13.51;71.93;99354.81;6217358;28;20641;-43
2022/11/11 11:56:06;;;;;;;6.50;2.90;;;;;;;13.83;70.90;99357.97;6220797;28;20232;-44
2022/11/11 11:59:33;;;;;;;3.17;2.57;;;;;;;14.07;68.20;99348.38;6221052;28;20232;-43
2022/11/11 12:03:28;;;;;;;3.47;2.17;;;;;;;14.16;65.30;99344.25;6214586;28;20248;-43
2022/11/11 12:07:12;;;;;;;3.20;1.83;;;;;;;14.21;64.96;99340.31;6216112;28;20629;-44
2022/11/11 12:10:49;;;;;;;3.50;1.67;;;;;;;14.55;64.44;99343.34;6216996;28;20642;-43
2022/11/11 12:14:27;;;;;;;6.07;2.00;;;;;;;14.70;64.00;99347.56;6215174;28;20233;-44
2022/11/11 12:18:21;;;;;;;4.87;2.17;;;;;;;14.81;62.80;99350.31;6216174;28;20719;-43
2022/11/11 12:22:33;;;;;;;2.07;1.37;;;;;;;14.73;63.73;99350.00;6216138;28;20241;-43
2022/11/11 12:26:23;;;;;;;1.77;1.40;;;;;;;14.62;64.26;99353.41;6165934;28;20233;-43
2022/11/11 12:29:47;;;;;;;2.13;1.40;;;;;;;14.60;64.72;99360.63;6161927;28;20781;-43
2022/11/11 12:33:52;;;;;;;2.43;1.50;;;;;;;14.66;64.33;99357.56;6165120;28;20221;-43
2022/11/11 12:37:22;;;;;;;3.33;1.50;;;;;;;14.61;64.21;99348.19;6164172;28;20265;-42
2022/11/11 12:41:12;;;;;;;3.50;2.13;;;;;;;14.98;63.20;99357.91;6168009;28;20225;-43
2022/11/11 12:44:53;;;;;;;4.47;3.43;;;;;;;15.55;60.19;99352.03;6167204;28;20712;-43
2022/11/11 12:48:40;;;;;;;8.27;3.63;;;;;;;16.28;57.38;99356.28;6165083;28;20816;-43
2022/11/11 12:52:30;;;;;;;4.67;2.80;;;;;;;18.29;52.28;99348.78;6189872;28;20289;-42
2022/11/11 12:56:02;;;;;;;5.50;3.17;;;;;;;18.83;48.92;99347.72;6211740;28;20236;-42
2022/11/11 12:59:34;;;;;;;3.97;2.73;;;;;;;18.25;50.81;99340.19;6239123;28;20236;-42
2022/11/11 13:03:16;;;;;;;4.83;3.40;;;;;;;17.26;52.25;99342.28;6244071;28;20262;-43
2022/11/11 13:06:46;;;;;;;3.07;2.50;;;;;;;16.11;56.93;99331.78;6239294;28;20216;-42
2022/11/11 13:10:39;;;;;;;5.27;2.60;;;;;;;15.61;58.12;99332.94;6241971;28;20228;-45
2022/11/11 13:14:42;;;;;;;5.90;2.80;;;;;;;14.96;59.85;99335.09;6238773;28;20224;-42
2022/11/11 13:18:14;;;;;;;7.27;2.80;;;;;;;14.29;62.94;99335.31;6239022;28;20235;-43
2022/11/11 13:21:50;;;;;;;3.67;2.17;;;;;;;13.98;63.33;99330.41;6243060;28;20641;-42
2022/11/11 13:25:17;;;;;;;5.80;2.93;;;;;;;13.80;64.55;99323.69;6243199;28;20770;-42
2022/11/11 13:28:48;;;;;;;6.63;2.40;;;;;;;13.51;65.62;99328.28;6238835;28;20301;-43
2022/11/11 13:32:13;;;;;;;3.80;2.27;;;;;;;13.32;66.34;99327.78;6240352;28;20227;-43
2022/11/11 13:35:54;;;;;;;3.53;2.40;;;;;;;13.08;66.35;99327.53;6237706;28;20271;-42
2022/11/11 13:39:58;;;;;;;3.27;2.10;;;;;;;12.94;67.54;99336.38;6238326;28;20678;-42
2022/11/11 13:43:28;;;;;;;3.93;2.10;;;;;;;12.74;67.74;99339.44;6168262;28;20249;-43
2022/11/11 13:46:49;;;;;;;2.93;2.30;;;;;;;12.53;69.21;99341.59;6150749;28;20237;-42
2022/11/11 13:50:25;;;;;;;3.53;2.00;;;;;;;12.22;70.76;99339.97;6141112;28;20234;-43
2022/11/11 13:53:47;;;;;;;5.13;2.20;;;;;;;11.89;72.03;99347.28;6147929;28;20230;-43
2022/11/11 13:57:21;;;;;;;5.03;2.07;;;;;;;11.43;74.22;99353.41;6141575;28;20710;-42
2022/11/11 14:00:42;;;;;;;3.10;1.90;;;;;;;11.15;75.69;99360.34;6166316;28;20492;-43
2022/11/11 14:04:06;;;;;;;2.63;1.90;;;;;;;10.81;77.08;99361.34;6163966;28;20258;-43
2022/11/11 14:07:46;;;;;;;3.53;2.00;;;;;;;10.43;77.91;99361.63;6166522;28;20321;-42
2022/11/11 14:11:26;;;;;;;4.10;2.20;;;;;;;10.13;79.20;99342.06;6162679;28;20234;-43
2022/11/11 14:14:55;;;;;;;3.00;1.90;;;;;;;9.94;80.30;99350.09;6168432;28;20233;-43
2022/11/11 14:18:16;;;;;;;5.13;2.07;;;;;;;9.82;80.76;99359.47;6201551;28;20309;-43
2022/11/11 14:21:53;;;;;;;7.00;1.93;;;;;;;9.64;81.63;99360.38;6238457;28;20345;-42
2022/11/11 14:25:18;;;;;;;4.17;1.93;;;;;;;9.58;81.94;99365.97;6240578;28;20238;-42
2022/11/11 14:28:51;;;;;;;3.30;1.77;;;;;;;9.47;82.60;99369.13;6241357;28;20235;-42
2022/11/11 14:32:48;;;;;;;4.30;1.77;;;;;;;9.35;83.04;99360.97;6243107;28;20711;-42
2022/11/11 14:36:33;;;;;;;3.07;1.37;;;;;;;9.24;83.88;99361.47;6242959;28;20741;-44
2022/11/11 14:39:55;;;;;;;1.10;1.00;;;;;;;9.06;83.88;99363.22;6247464;28;20230;-43
2022/11/11 14:43:31;;;;;;;1.60;1.17;;;;;;;8.89;84.04;99356.09;6242896;28;20595;-42
2022/11/11 14:47:07;;;;;;;2.13;1.03;;;;;;;8.70;84.51;99352.59;6241759;28;20238;-42
2022/11/11 14:50:30;;;;;;;2.20;0.90;;;;;;;8.54;85.52;99358.63;6259507;28;20244;-44
2022/11/11 14:53:52;;;;;;;2.13;0.93;;;;;;;8.35;86.35;99353.34;6262728;28;20260;-42
2022/11/11 14:57:25;;;;;;;4.37;1.67;;;;;;;8.17;86.66;99367.28;6264697;28;20684;-42
2022/11/11 15:01:11;;;;;;;1.83;1.17;;;;;;;8.04;87.53;99362.56;6267123;28;20237;-42
2022/11/11 15:04:37;;;;;;;1.70;1.10;;;;;;;7.89;87.69;99346.56;6267598;28;20238;-42
2022/11/11 15:08:09;;;;;;;2.97;2.00;;;;;;;7.76;88.34;99341.00;6268722;28;20279;-42
2022/11/11 15:12:23;;;;;;;2.43;1.60;;;;;;;7.57;88.42;99343.53;6265490;28;20234;-42
2022/11/11 15:16:05;;;;;;;1.17;1.00;;;;;;;7.34;89.37;99354.97;6118688;28;20233;-43
2022/11/11 15:19:56;;;;;;;1.83;1.23;;;;;;;7.20;90.13;99354.66;6123336;28;20318;-43
2022/11/11 15:23:34;;;;;;;2.07;1.37;;;;;;;7.02;90.38;99360.66;6120504;28;20727;-42
2022/11/11 15:27:22;;;;;;;2.70;1.40;;;;;;;6.86;90.97;99367.41;6119300;28;20658;-42
2022/11/11 15:30:57;;;;;;;2.87;1.63;;;;;;;6.71;91.35;99374.09;6117868;29;20329;-42
2022/11/11 15:34:32;;;;;;;3.63;1.77;;;;;;;6.57;92.24;99374.63;6117101;29;20238;-43
2022/11/11 15:37:56;;;;;;;3.50;1.60;;;;;;;6.47;92.75;99382.88;6117422;28;20241;-42
2022/11/11 15:41:31;;;;;;;2.57;1.67;;;;;;;6.32;93.02;99381.66;6117952;28;20240;-43
2022/11/11 15:44:57;;;;;;;2.47;1.70;;;;;;;6.21;93.34;99370.69;6154460;28;20243;-42
2022/11/11 15:48:42;;;;;;;4.30;1.63;;;;;;;6.10;93.45;99376.31;6266315;28;20312;-43
2022/11/11 15:52:03;;;;;;;1.70;1.33;;;;;;;5.94;94.06;99383.00;6257858;28;20226;-42
2022/11/11 15:55:26;;;;;;;4.73;2.13;;;;;;;5.84;94.01;99397.28;6265410;28;20230;-42
2022/11/11 15:58:47;;;;;;;4.70;2.43;;;;;;;5.76;94.25;99394.94;6268115;28;20234;-42
2022/11/11 16:02:17;;;;;;;3.87;2.07;;;;;;;5.66;94.83;99396.16;6261547;28;20228;-42
2022/11/11 16:05:37;;;;;;;3.73;2.50;;;;;;;5.55;94.99;99408.72;6262744;28;20220;-42
2022/11/11 16:08:58;;;;;;;4.20;2.60;;;;;;;5.51;95.01;99400.09;6247945;28;20681;-42
2022/11/11 16:12:25;;;;;;;3.83;2.33;;;;;;;5.41;95.08;99403.06;6263382;28;20237;-44
2022/11/11 16:15:49;;;;;;;3.60;1.77;;;;;;;5.29;96.01;99399.06;6258435;28;20237;-43
2022/11/11 16:19:41;;;;;;;2.20;1.30;;;;;;;5.15;95.23;99402.13;6256495;28;20236;-43
2022/11/11 16:23:12;;;;;;;2.73;1.60;;;;;;;5.09;95.68;99401.47;6258242;28;20683;-44
2022/11/11 16:26:33;;;;;;;3.77;1.77;;;;;;;5.00;95.43;99389.50;6269646;28;20316;-43
2022/11/11 16:29:54;;;;;;;2.37;1.73;;;;;;;4.90;96.24;99398.53;6264101;28;20224;-43
2022/11/11 16:33:27;;;;;;;2.97;1.90;;;;;;;4.82;95.80;99379.59;6258574;28;20235;-42
2022/11/11 16:37:01;;;;;;;2.33;1.87;;;;;;;4.73;96.27;99372.91;6259906;28;20814;-42
2022/11/11 16:40:35;;;;;;;5.33;1.40;;;;;;;4.62;96.55;99382.81;6259621;28;20229;-43
2022/11/11 16:43:56;;;;;;;1.67;1.37;;;;;;;4.55;97.06;99386.50;6267888;28;20236;-42
2022/11/11 16:47:33;;;;;;;2.20;1.10;;;;;;;4.49;96.80;99399.78;6260742;28;20248;-42
2022/11/11 16:51:02;;;;;;;2.73;1.40;;;;;;;4.43;97.55;99413.00;6257743;28;20227;-42
2022/11/11 16:54:30;;;;;;;4.53;1.63;;;;;;;4.36;97.37;99416.69;6263381;28;20233;-43
2022/11/11 16:57:52;;;;;;;6.37;2.53;;;;;;;4.34;98.22;99410.63;6266021;28;20231;-43